Terminal Aerodrome Forecast
Issued by NWS Cleveland, OH

Home | Current Version | Previous Version | Text Only | Print | Product List | Glossary On
Versions: 1 2 3 4 5 6 7 8 9 10 11 12 13 14 15 16 17
258
FTUS41 KCLE 280530
TAFYNG
TAF
KYNG 280530Z 2806/0106 15008KT P6SM SCT050 BKN150
     FM281500 16008KT 6SM -SHRA OVC050
     FM281900 18012KT P6SM VCSH OVC025=

USA.gov is the U.S. government's official web portal to all federal, state and local government web resources and services.